createdAt,value
2016-09-06T00:00:25.800Z,0
2016-09-06T00:01:25.759Z,0
2016-09-06T00:02:25.772Z,0
2016-09-06T00:03:25.741Z,0
2016-09-06T00:04:25.742Z,0
2016-09-06T00:05:25.744Z,0
2016-09-06T00:06:25.753Z,0
2016-09-06T00:07:25.744Z,0
2016-09-06T00:08:25.779Z,0
2016-09-06T00:09:25.759Z,0
2016-09-06T00:10:25.772Z,0
2016-09-06T00:11:25.742Z,0
2016-09-06T00:12:25.758Z,0
2016-09-06T00:13:25.729Z,0
2016-09-06T00:14:25.771Z,0
2016-09-06T00:15:25.760Z,0
2016-09-06T00:16:25.741Z,0
2016-09-06T00:17:25.731Z,0
2016-09-06T00:18:25.775Z,0
2016-09-06T00:19:25.759Z,0
2016-09-06T00:20:25.765Z,0
2016-09-06T00:21:25.768Z,0
2016-09-06T00:22:25.746Z,0
2016-09-06T00:23:25.791Z,0
2016-09-06T00:24:25.746Z,0
2016-09-06T00:25:25.802Z,0
2016-09-06T00:26:25.772Z,0
2016-09-06T00:27:25.744Z,0
2016-09-06T00:28:25.740Z,0
2016-09-06T00:29:25.764Z,0
2016-09-06T00:30:25.762Z,0
2016-09-06T00:31:25.761Z,0
2016-09-06T00:32:25.776Z,0
2016-09-06T00:33:25.774Z,0
2016-09-06T00:34:25.775Z,0
2016-09-06T00:35:25.759Z,0
2016-09-06T00:36:25.775Z,0
2016-09-06T00:37:25.772Z,0
2016-09-06T00:38:25.774Z,0
2016-09-06T00:39:25.761Z,0
2016-09-06T00:40:25.774Z,0
2016-09-06T00:41:25.769Z,0
2016-09-06T00:42:25.760Z,0
2016-09-06T00:43:25.765Z,0
2016-09-06T00:44:25.805Z,0
2016-09-06T00:45:25.776Z,0
2016-09-06T00:46:25.762Z,0
2016-09-06T00:47:25.779Z,0
2016-09-06T00:48:25.764Z,0
2016-09-06T00:49:25.779Z,0
2016-09-06T00:50:25.769Z,0
2016-09-06T00:51:25.792Z,0
2016-09-06T00:52:26.815Z,0
2016-09-06T00:53:25.796Z,0
2016-09-06T00:54:25.833Z,0
2016-09-06T00:55:25.800Z,0
2016-09-06T00:56:25.813Z,0
2016-09-06T00:57:25.792Z,0
2016-09-06T00:58:25.783Z,0
2016-09-06T00:59:25.805Z,0
2016-09-06T01:00:25.825Z,0
2016-09-06T01:01:25.837Z,0
2016-09-06T01:02:26.077Z,0
2016-09-06T01:03:25.868Z,0
2016-09-06T01:04:25.833Z,0
2016-09-06T01:05:25.840Z,0
2016-09-06T01:06:25.841Z,0
2016-09-06T01:07:25.799Z,0
2016-09-06T01:08:25.876Z,0
2016-09-06T01:09:25.874Z,0
2016-09-06T01:10:25.837Z,0
2016-09-06T01:11:25.825Z,0
2016-09-06T01:12:25.864Z,0
2016-09-06T01:13:25.824Z,0
2016-09-06T01:14:25.829Z,0
2016-09-06T01:15:25.836Z,0
2016-09-06T01:16:25.812Z,0
2016-09-06T01:17:25.807Z,0
2016-09-06T01:18:25.811Z,0
2016-09-06T01:19:25.828Z,0
2016-09-06T01:20:25.797Z,0
2016-09-06T01:21:25.793Z,0
2016-09-06T01:22:25.808Z,0
2016-09-06T01:23:25.816Z,0
2016-09-06T01:24:25.806Z,0
2016-09-06T01:25:25.807Z,0
2016-09-06T01:26:25.926Z,0
2016-09-06T01:27:25.827Z,0
2016-09-06T01:28:25.812Z,0
2016-09-06T01:29:25.819Z,0
2016-09-06T01:30:25.839Z,0
2016-09-06T01:31:25.812Z,0
2016-09-06T01:32:25.832Z,0
2016-09-06T01:33:25.829Z,0
2016-09-06T01:34:25.854Z,0
2016-09-06T01:35:25.853Z,0
2016-09-06T01:36:25.835Z,0
2016-09-06T01:37:25.822Z,0
2016-09-06T01:38:25.838Z,0
2016-09-06T01:39:25.857Z,0
2016-09-06T01:40:25.828Z,0
2016-09-06T01:41:25.809Z,0
2016-09-06T01:42:25.869Z,0
2016-09-06T01:43:25.814Z,0
2016-09-06T01:44:25.831Z,0
2016-09-06T01:45:25.840Z,0
2016-09-06T01:46:25.838Z,0
2016-09-06T01:47:25.901Z,0
2016-09-06T01:48:25.852Z,0
2016-09-06T01:49:25.886Z,0
2016-09-06T01:50:25.834Z,0
2016-09-06T01:51:25.826Z,0
2016-09-06T01:52:25.935Z,0
2016-09-06T01:53:25.884Z,0
2016-09-06T01:54:25.839Z,0
2016-09-06T01:55:25.870Z,0
2016-09-06T01:56:25.842Z,0
2016-09-06T01:57:25.845Z,0
2016-09-06T01:58:25.858Z,0
2016-09-06T01:59:25.824Z,0
2016-09-06T02:00:25.825Z,0
2016-09-06T02:01:25.852Z,0
2016-09-06T02:02:25.824Z,0
2016-09-06T02:03:25.897Z,0
2016-09-06T02:04:25.824Z,0
2016-09-06T02:05:25.837Z,0
2016-09-06T02:06:25.841Z,0
2016-09-06T02:07:25.830Z,0
2016-09-06T02:08:25.859Z,0
2016-09-06T02:09:25.840Z,0
2016-09-06T02:10:25.826Z,0
2016-09-06T02:11:25.849Z,0
2016-09-06T02:12:25.864Z,0
2016-09-06T02:13:25.855Z,0
2016-09-06T02:14:25.871Z,0
2016-09-06T02:15:25.857Z,0
2016-09-06T02:16:25.922Z,0
2016-09-06T02:17:25.871Z,0
2016-09-06T02:18:25.864Z,0
2016-09-06T02:19:25.876Z,0
2016-09-06T02:20:25.868Z,0
2016-09-06T02:21:25.857Z,0
2016-09-06T02:22:25.952Z,0
2016-09-06T02:23:25.895Z,0
2016-09-06T02:24:25.866Z,0
2016-09-06T02:25:25.863Z,0
2016-09-06T02:26:25.901Z,0
2016-09-06T02:27:25.887Z,0
2016-09-06T02:28:25.878Z,0
2016-09-06T02:29:25.879Z,0
2016-09-06T02:30:25.900Z,0
2016-09-06T02:31:25.892Z,0
2016-09-06T02:32:25.874Z,0
2016-09-06T02:33:25.899Z,0
2016-09-06T02:34:25.892Z,0
2016-09-06T02:35:25.876Z,0
2016-09-06T02:36:25.913Z,0
2016-09-06T02:37:25.939Z,0
2016-09-06T02:38:25.911Z,0
2016-09-06T02:39:25.906Z,0
2016-09-06T02:40:25.896Z,0
2016-09-06T02:41:25.930Z,0
2016-09-06T02:42:25.908Z,0
2016-09-06T02:43:25.893Z,0
2016-09-06T02:44:25.904Z,0
2016-09-06T02:45:25.872Z,0
2016-09-06T02:46:25.908Z,0
2016-09-06T02:47:25.904Z,0
2016-09-06T02:48:25.889Z,0
2016-09-06T02:49:25.912Z,0
2016-09-06T02:50:25.902Z,0
2016-09-06T02:51:25.879Z,0
2016-09-06T02:52:25.970Z,0
2016-09-06T02:53:25.903Z,0
2016-09-06T02:54:25.918Z,0
2016-09-06T02:55:25.891Z,0
2016-09-06T02:56:25.918Z,0
2016-09-06T02:57:25.919Z,0
2016-09-06T02:58:25.910Z,0
2016-09-06T02:59:25.892Z,0
2016-09-06T03:00:25.900Z,0
2016-09-06T03:01:25.919Z,0
2016-09-06T03:02:25.915Z,0
2016-09-06T03:03:25.889Z,0
2016-09-06T03:04:25.921Z,0
2016-09-06T03:05:25.887Z,0
2016-09-06T03:06:25.948Z,0
2016-09-06T03:07:25.932Z,0
2016-09-06T03:08:25.902Z,0
2016-09-06T03:09:25.909Z,0
2016-09-06T03:10:25.919Z,0
2016-09-06T03:11:25.907Z,0
2016-09-06T03:12:25.902Z,0
2016-09-06T03:13:25.969Z,0
2016-09-06T03:14:25.907Z,0
2016-09-06T03:15:25.915Z,0
2016-09-06T03:16:25.936Z,0
2016-09-06T03:17:25.904Z,0
2016-09-06T03:18:25.950Z,0
2016-09-06T03:19:25.891Z,0
2016-09-06T03:20:25.932Z,0
2016-09-06T03:21:25.927Z,0
2016-09-06T03:22:25.949Z,0
2016-09-06T03:23:25.909Z,0
2016-09-06T03:24:25.906Z,0
2016-09-06T03:25:25.935Z,0
2016-09-06T03:26:25.949Z,0
2016-09-06T03:27:25.902Z,0
2016-09-06T03:28:25.906Z,0
2016-09-06T03:29:25.920Z,0
2016-09-06T03:30:25.933Z,0
2016-09-06T03:31:25.929Z,0
2016-09-06T03:32:25.920Z,0
2016-09-06T03:33:25.918Z,0
2016-09-06T03:34:25.906Z,0
2016-09-06T03:35:25.938Z,0
2016-09-06T03:36:25.909Z,0
2016-09-06T03:37:25.910Z,0
2016-09-06T03:38:25.952Z,0
2016-09-06T03:39:25.944Z,0
2016-09-06T03:40:25.964Z,0
2016-09-06T03:41:25.963Z,0
2016-09-06T03:42:25.943Z,0
2016-09-06T03:43:25.934Z,0
2016-09-06T03:44:25.956Z,0
2016-09-06T03:45:25.955Z,0
2016-09-06T03:46:25.942Z,0
2016-09-06T03:47:25.979Z,0
2016-09-06T03:48:26.593Z,0
2016-09-06T03:49:25.921Z,0
2016-09-06T03:50:25.959Z,0
2016-09-06T03:51:25.957Z,0
2016-09-06T03:52:25.982Z,0
2016-09-06T03:53:25.936Z,0
2016-09-06T03:54:25.955Z,0
2016-09-06T03:55:25.932Z,0
2016-09-06T03:56:25.952Z,0
2016-09-06T03:57:25.925Z,0
2016-09-06T03:58:25.980Z,0
2016-09-06T03:59:25.931Z,0
2016-09-06T04:00:25.937Z,0
2016-09-06T04:01:25.986Z,0
2016-09-06T04:02:25.943Z,0
2016-09-06T04:03:25.937Z,0
2016-09-06T04:04:25.957Z,0
2016-09-06T04:05:25.932Z,0
2016-09-06T04:06:25.952Z,0
2016-09-06T04:07:25.950Z,0
2016-09-06T04:08:25.974Z,0
2016-09-06T04:09:25.951Z,0
2016-09-06T04:10:25.969Z,0
2016-09-06T04:11:25.964Z,0
2016-09-06T04:12:25.981Z,0
2016-09-06T04:13:25.941Z,0
2016-09-06T04:14:25.967Z,4
2016-09-06T04:15:25.963Z,4
2016-09-06T04:16:25.968Z,0
2016-09-06T04:17:25.957Z,4
2016-09-06T04:18:26.009Z,4
2016-09-06T04:19:25.984Z,4
2016-09-06T04:20:25.983Z,4
2016-09-06T04:21:25.956Z,4
2016-09-06T04:22:25.959Z,8
2016-09-06T04:23:25.987Z,8
2016-09-06T04:24:25.982Z,12
2016-09-06T04:25:25.956Z,8
2016-09-06T04:26:26.002Z,8
2016-09-06T04:27:26.139Z,12
2016-09-06T04:28:26.041Z,16
2016-09-06T04:29:25.996Z,16
2016-09-06T04:30:25.961Z,20
2016-09-06T04:31:26.010Z,24
2016-09-06T04:32:26.019Z,32
2016-09-06T04:33:25.999Z,36
2016-09-06T04:34:25.972Z,40
2016-09-06T04:35:25.978Z,44
2016-09-06T04:36:26.012Z,56
2016-09-06T04:37:25.995Z,68
2016-09-06T04:38:25.988Z,76
2016-09-06T04:39:26.005Z,84
2016-09-06T04:40:26.009Z,96
2016-09-06T04:41:25.970Z,108
2016-09-06T04:42:26.114Z,124
2016-09-06T04:43:26.174Z,140
2016-09-06T04:44:26.136Z,156
2016-09-06T04:45:26.010Z,172
2016-09-06T04:46:25.991Z,196
2016-09-06T04:47:25.968Z,216
2016-09-06T04:48:25.993Z,236
2016-09-06T04:49:25.986Z,256
2016-09-06T04:50:25.985Z,280
2016-09-06T04:51:25.970Z,304
2016-09-06T04:52:26.032Z,332
2016-09-06T04:53:25.970Z,360
2016-09-06T04:54:26.008Z,384
2016-09-06T04:55:26.020Z,412
2016-09-06T04:56:25.984Z,436
2016-09-06T04:57:25.988Z,468
2016-09-06T04:58:25.995Z,500
2016-09-06T04:59:26.000Z,536
2016-09-06T05:00:25.995Z,576
2016-09-06T05:01:26.062Z,608
2016-09-06T05:02:25.990Z,644
2016-09-06T05:03:26.025Z,692
2016-09-06T05:04:25.987Z,744
2016-09-06T05:05:25.999Z,792
2016-09-06T05:06:25.999Z,820
2016-09-06T05:07:26.035Z,844
2016-09-06T05:08:26.016Z,872
2016-09-06T05:09:26.097Z,892
2016-09-06T05:10:26.029Z,944
2016-09-06T05:11:26.017Z,1044
2016-09-06T05:12:25.985Z,1148
2016-09-06T05:13:26.005Z,1228
2016-09-06T05:14:25.994Z,1276
2016-09-06T05:15:26.018Z,1332
2016-09-06T05:16:25.986Z,1396
2016-09-06T05:17:26.004Z,1464
2016-09-06T05:18:26.015Z,1552
2016-09-06T05:19:26.004Z,1572
2016-09-06T05:20:26.002Z,1632
2016-09-06T05:21:26.003Z,1684
2016-09-06T05:22:26.017Z,1744
2016-09-06T05:23:26.003Z,1784
2016-09-06T05:24:26.068Z,1820
2016-09-06T05:25:26.046Z,1860
2016-09-06T05:26:26.024Z,1916
2016-09-06T05:27:26.001Z,1976
2016-09-06T05:28:26.095Z,2036
2016-09-06T05:29:26.032Z,2088
2016-09-06T05:30:26.109Z,2136
2016-09-06T05:31:26.005Z,2168
2016-09-06T05:32:26.047Z,2204
2016-09-06T05:33:26.019Z,2240
2016-09-06T05:34:26.044Z,2276
2016-09-06T05:35:26.030Z,2324
2016-09-06T05:36:26.053Z,2372
2016-09-06T05:37:26.049Z,2428
2016-09-06T05:38:26.083Z,2480
2016-09-06T05:39:26.045Z,2528
2016-09-06T05:40:26.032Z,2576
2016-09-06T05:41:26.045Z,2596
2016-09-06T05:42:26.076Z,2616
2016-09-06T05:43:26.059Z,2656
2016-09-06T05:44:26.035Z,2704
2016-09-06T05:45:26.062Z,2752
2016-09-06T05:46:26.043Z,2796
2016-09-06T05:47:26.050Z,2844
2016-09-06T05:48:26.057Z,2892
2016-09-06T05:49:26.033Z,2936
2016-09-06T05:50:26.070Z,2980
2016-09-06T05:51:26.049Z,3020
2016-09-06T05:52:26.131Z,3068
2016-09-06T05:53:26.114Z,3120
2016-09-06T05:54:26.053Z,3180
2016-09-06T05:55:26.076Z,3224
2016-09-06T05:56:26.053Z,3260
2016-09-06T05:57:26.100Z,3292
2016-09-06T05:58:26.034Z,3320
2016-09-06T05:59:26.174Z,3348
2016-09-06T06:00:26.031Z,3372
2016-09-06T06:01:26.123Z,3396
2016-09-06T06:02:26.074Z,3416
2016-09-06T06:03:26.085Z,3440
2016-09-06T06:04:26.145Z,3476
2016-09-06T06:05:26.097Z,3524
2016-09-06T06:06:26.079Z,3564
2016-09-06T06:07:26.064Z,3596
2016-09-06T06:08:26.064Z,3620
2016-09-06T06:09:26.047Z,3644
2016-09-06T06:10:26.049Z,3668
2016-09-06T06:11:26.152Z,3700
2016-09-06T06:12:26.067Z,3728
2016-09-06T06:13:26.068Z,3756
2016-09-06T06:14:26.037Z,3784
2016-09-06T06:15:26.100Z,3812
2016-09-06T06:16:26.098Z,3844
2016-09-06T06:17:26.106Z,3864
2016-09-06T06:18:26.065Z,3876
2016-09-06T06:19:26.065Z,3900
2016-09-06T06:20:26.059Z,3924
2016-09-06T06:21:26.079Z,3944
2016-09-06T06:22:26.073Z,3980
2016-09-06T06:23:26.082Z,4016
2016-09-06T06:24:26.080Z,4048
2016-09-06T06:25:26.053Z,4084
2016-09-06T06:26:26.088Z,4104
2016-09-06T06:27:26.052Z,4116
2016-09-06T06:28:26.122Z,4120
2016-09-06T06:29:26.053Z,4152
2016-09-06T06:30:26.050Z,4200
2016-09-06T06:31:26.072Z,4240
2016-09-06T06:32:26.111Z,4296
2016-09-06T06:33:26.064Z,4344
2016-09-06T06:34:26.070Z,4384
2016-09-06T06:35:26.085Z,4432
2016-09-06T06:36:26.106Z,4480
2016-09-06T06:37:26.673Z,4512
2016-09-06T06:38:26.084Z,4528
2016-09-06T06:39:26.072Z,4556
2016-09-06T06:40:26.069Z,4568
2016-09-06T06:41:26.060Z,4600
2016-09-06T06:42:26.206Z,4648
2016-09-06T06:43:26.080Z,4692
2016-09-06T06:44:26.078Z,4720
2016-09-06T06:45:27.042Z,4760
2016-09-06T06:46:27.164Z,4788
2016-09-06T06:47:26.889Z,4828
2016-09-06T06:48:26.146Z,4888
2016-09-06T06:49:26.883Z,4928
2016-09-06T06:50:26.117Z,4980
2016-09-06T06:51:26.142Z,5044
2016-09-06T06:52:27.166Z,5020
2016-09-06T06:53:27.237Z,5016
2016-09-06T06:54:26.439Z,5008
2016-09-06T06:55:27.001Z,5012
2016-09-06T06:56:27.216Z,5000
2016-09-06T06:57:28.393Z,4980
2016-09-06T06:58:26.113Z,4960
2016-09-06T06:59:26.176Z,4968
2016-09-06T07:00:26.662Z,4960
2016-09-06T07:01:26.714Z,4988
2016-09-06T07:02:26.104Z,5004
2016-09-06T07:03:26.096Z,5016
2016-09-06T07:04:26.101Z,5036
2016-09-06T07:05:26.172Z,5032
2016-09-06T07:06:26.126Z,5036
2016-09-06T07:07:26.115Z,5040
2016-09-06T07:08:26.100Z,5040
2016-09-06T07:09:26.106Z,5052
2016-09-06T07:10:26.127Z,5068
2016-09-06T07:11:26.134Z,5116
2016-09-06T07:12:26.156Z,5148
2016-09-06T07:13:26.115Z,5184
2016-09-06T07:14:26.133Z,5204
2016-09-06T07:15:26.120Z,5228
2016-09-06T07:16:26.112Z,5272
2016-09-06T07:17:26.130Z,5320
2016-09-06T07:18:26.143Z,5348
2016-09-06T07:19:26.142Z,5376
2016-09-06T07:20:26.113Z,5404
2016-09-06T07:21:26.130Z,5440
2016-09-06T07:22:26.623Z,5464
2016-09-06T07:27:43.310Z,5504
2016-09-06T07:27:53.575Z,5616
2016-09-06T07:28:54.946Z,5596
2016-09-06T07:29:53.235Z,5588
2016-09-06T07:30:54.262Z,5624
2016-09-06T07:31:53.204Z,5628
2016-09-06T07:32:53.227Z,5604
2016-09-06T07:33:53.235Z,5544
2016-09-06T07:34:53.213Z,5476
2016-09-06T07:35:53.377Z,5420
2016-09-06T07:36:53.227Z,5384
2016-09-06T07:37:53.203Z,5360
2016-09-06T07:38:53.223Z,5356
2016-09-06T07:39:53.251Z,5328
2016-09-06T07:40:53.347Z,5380
2016-09-06T07:41:53.210Z,5420
2016-09-06T07:42:53.223Z,5396
2016-09-06T07:43:53.237Z,5396
2016-09-06T07:44:53.249Z,5404
2016-09-06T07:45:54.018Z,5400
2016-09-06T07:46:53.626Z,5412
2016-09-06T07:47:53.821Z,5464
2016-09-06T07:48:53.235Z,5488
2016-09-06T07:49:53.227Z,5472
2016-09-06T07:50:53.281Z,5484
2016-09-06T07:51:53.264Z,5460
2016-09-06T07:52:53.284Z,5456
2016-09-06T07:53:53.277Z,5448
2016-09-06T07:54:53.222Z,5484
2016-09-06T07:55:53.226Z,5488
2016-09-06T07:56:53.248Z,5484
2016-09-06T07:57:53.213Z,5464
2016-09-06T07:58:53.233Z,5428
2016-09-06T07:59:53.227Z,5444
2016-09-06T08:00:53.274Z,5456
2016-09-06T08:01:53.282Z,5456
2016-09-06T08:02:53.307Z,5448
2016-09-06T08:03:53.261Z,5500
2016-09-06T08:04:53.236Z,5508
2016-09-06T08:05:54.017Z,5504
2016-09-06T08:06:54.304Z,5520
2016-09-06T08:07:53.270Z,5468
2016-09-06T08:08:53.716Z,5492
2016-09-06T08:09:53.252Z,5504
2016-09-06T08:10:54.855Z,5440
2016-09-06T08:11:54.962Z,5432
2016-09-06T08:12:53.252Z,5456
2016-09-06T08:13:54.196Z,5468
2016-09-06T08:14:53.296Z,5476
2016-09-06T08:15:54.147Z,5444
2016-09-06T08:16:54.576Z,5432
2016-09-06T08:17:53.234Z,5376
2016-09-06T08:18:53.858Z,5392
2016-09-06T08:19:54.319Z,5376
2016-09-06T08:20:53.316Z,5388
2016-09-06T08:21:53.658Z,5392
2016-09-06T08:22:53.257Z,5380
2016-09-06T08:23:53.294Z,5372
2016-09-06T08:24:53.282Z,5348
2016-09-06T08:25:53.342Z,5336
2016-09-06T08:26:53.332Z,5332
2016-09-06T08:27:53.254Z,5360
2016-09-06T08:28:53.343Z,5384
2016-09-06T08:29:53.789Z,5352
2016-09-06T08:30:53.285Z,5312
2016-09-06T08:31:53.267Z,5300
2016-09-06T08:32:56.391Z,5308
2016-09-06T08:33:53.278Z,5320
2016-09-06T08:34:53.292Z,5324
2016-09-06T08:35:53.919Z,5320
2016-09-06T08:36:53.283Z,5284
2016-09-06T08:37:53.823Z,5252
2016-09-06T08:38:53.268Z,5224
2016-09-06T08:39:53.306Z,5184
2016-09-06T08:40:53.269Z,5132
2016-09-06T08:41:53.647Z,5144
2016-09-06T08:42:53.962Z,5176
2016-09-06T08:43:53.329Z,5232
2016-09-06T08:44:53.292Z,5272
2016-09-06T08:45:54.117Z,5280
2016-09-06T08:46:53.284Z,5256
2016-09-06T08:47:53.299Z,5228
2016-09-06T08:48:53.332Z,5188
2016-09-06T08:49:53.299Z,5148
2016-09-06T08:50:53.313Z,5404
2016-09-06T08:51:53.306Z,5356
2016-09-06T08:52:53.342Z,5388
2016-09-06T08:53:53.301Z,5448
2016-09-06T08:54:53.381Z,5520
2016-09-06T08:55:53.270Z,5524
2016-09-06T08:56:53.299Z,5528
2016-09-06T08:57:53.707Z,5500
2016-09-06T08:58:53.305Z,5524
2016-09-06T08:59:53.364Z,5568
2016-09-06T09:00:53.320Z,5604
2016-09-06T09:01:54.481Z,5660
2016-09-06T09:02:53.508Z,5712
2016-09-06T09:03:53.327Z,5744
2016-09-06T09:04:53.436Z,5668
2016-09-06T09:05:53.355Z,5556
2016-09-06T09:06:53.335Z,5644
2016-09-06T09:07:53.304Z,5740
2016-09-06T09:08:53.667Z,5752
2016-09-06T09:09:53.351Z,5784
2016-09-06T09:10:53.328Z,5864
2016-09-06T09:11:53.309Z,5888
2016-09-06T09:12:53.318Z,5812
2016-09-06T09:13:53.342Z,5824
2016-09-06T09:14:53.305Z,5812
2016-09-06T09:15:53.398Z,5864
2016-09-06T09:16:53.317Z,5976
2016-09-06T09:18:22.582Z,6028
2016-09-06T09:19:06.271Z,6060
2016-09-06T09:20:17.697Z,6132
2016-09-06T09:20:53.331Z,6164
2016-09-06T09:21:53.322Z,6228
2016-09-06T09:22:58.012Z,6208
2016-09-06T09:24:21.531Z,5980
2016-09-06T09:25:38.986Z,5852
2016-09-06T09:26:04.799Z,5812
2016-09-06T09:27:11.617Z,5748
2016-09-06T09:28:26.246Z,5828
2016-09-06T09:29:14.901Z,5840
2016-09-06T09:31:00.004Z,5760
2016-09-06T09:31:59.078Z,5808
2016-09-06T09:33:45.023Z,5816
2016-09-06T09:33:54.952Z,5768
2016-09-06T09:34:54.943Z,5688
2016-09-06T09:35:56.046Z,5944
2016-09-06T09:36:54.934Z,6004
2016-09-06T09:37:54.980Z,6060
2016-09-06T09:38:56.586Z,5948
2016-09-06T09:39:54.923Z,5960
2016-09-06T09:41:55.015Z,5644
2016-09-06T09:42:55.014Z,5576
2016-09-06T09:43:55.937Z,5820
2016-09-06T09:44:55.003Z,5844
2016-09-06T09:45:54.961Z,5852
2016-09-06T09:46:55.776Z,6000
2016-09-06T09:47:55.014Z,5996
2016-09-06T09:48:55.674Z,5996
2016-09-06T09:49:56.214Z,5968
2016-09-06T09:50:54.983Z,5928
2016-09-06T09:51:55.737Z,5968
2016-09-06T09:52:55.590Z,6076
2016-09-06T09:53:54.966Z,6288
2016-09-06T09:54:54.937Z,6228
2016-09-06T09:55:54.988Z,5868
2016-09-06T09:56:54.967Z,5776
2016-09-06T09:57:54.967Z,5804
2016-09-06T09:58:54.970Z,5592
2016-09-06T09:59:54.988Z,5496
2016-09-06T10:00:54.974Z,5500
2016-09-06T10:01:55.690Z,5732
2016-09-06T10:02:55.031Z,5776
2016-09-06T10:03:55.922Z,5636
2016-09-06T10:04:55.022Z,5940
2016-09-06T10:05:55.077Z,6472
2016-09-06T10:06:55.101Z,6296
2016-09-06T10:07:55.135Z,5784
2016-09-06T10:08:56.991Z,5528
2016-09-06T10:09:55.008Z,5728
2016-09-06T10:10:54.958Z,5500
2016-09-06T10:11:54.969Z,5624
2016-09-06T10:12:55.155Z,6380
2016-09-06T10:13:55.002Z,7732
2016-09-06T10:14:54.985Z,7380
2016-09-06T10:15:55.041Z,7216
2016-09-06T10:16:55.000Z,7524
2016-09-06T10:17:54.985Z,7140
2016-09-06T10:18:54.999Z,6584
2016-09-06T10:19:55.028Z,6452
2016-09-06T10:20:54.990Z,6224
2016-09-06T10:21:55.254Z,5984
2016-09-06T10:22:55.480Z,6088
2016-09-06T10:23:55.485Z,6176
2016-09-06T10:24:55.929Z,5820
2016-09-06T10:25:55.588Z,6168
2016-09-06T10:26:56.070Z,7012
2016-09-06T10:27:55.466Z,6724
2016-09-06T10:28:55.185Z,6328
2016-09-06T10:29:55.769Z,6128
2016-09-06T10:30:55.213Z,5684
2016-09-06T10:31:55.128Z,5328
2016-09-06T10:32:56.318Z,5124
2016-09-06T10:33:56.359Z,4980
2016-09-06T10:34:55.913Z,4860
2016-09-06T10:35:55.626Z,4780
2016-09-06T10:36:55.267Z,4768
2016-09-06T10:37:56.894Z,4812
2016-09-06T10:38:56.594Z,4864
2016-09-06T10:39:55.516Z,4864
2016-09-06T10:40:55.967Z,4720
2016-09-06T10:41:55.252Z,4732
2016-09-06T10:42:55.210Z,4748
2016-09-06T10:43:55.199Z,4724
2016-09-06T10:44:55.269Z,4688
2016-09-06T10:45:55.160Z,4716
2016-09-06T10:46:55.156Z,4784
2016-09-06T10:47:55.245Z,4856
2016-09-06T10:48:55.207Z,4908
2016-09-06T10:49:55.282Z,4936
2016-09-06T10:50:55.094Z,5004
2016-09-06T10:51:55.214Z,5068
2016-09-06T10:52:55.379Z,4948
2016-09-06T10:53:55.273Z,4788
2016-09-06T10:54:55.183Z,4760
2016-09-06T10:55:55.307Z,4924
2016-09-06T10:56:55.463Z,5020
2016-09-06T10:57:55.755Z,5072
2016-09-06T10:58:55.241Z,5024
2016-09-06T10:59:55.185Z,5164
2016-09-06T11:00:55.264Z,5232
2016-09-06T11:01:55.202Z,5180
2016-09-06T11:02:55.410Z,5104
2016-09-06T11:03:55.355Z,5064
2016-09-06T11:04:55.356Z,5056
2016-09-06T11:05:55.484Z,5068
2016-09-06T11:06:55.528Z,5028
2016-09-06T11:07:55.445Z,4952
2016-09-06T11:08:55.551Z,4884
2016-09-06T11:09:55.448Z,4848
2016-09-06T11:10:55.281Z,4748
2016-09-06T11:11:55.127Z,5376
2016-09-06T11:12:55.217Z,5880
2016-09-06T11:13:55.296Z,5820
2016-09-06T11:14:55.106Z,6288
2016-09-06T11:15:55.143Z,6612
2016-09-06T11:16:55.115Z,6660
2016-09-06T11:17:55.167Z,7132
2016-09-06T11:18:55.145Z,7404
2016-09-06T11:19:55.111Z,7624
2016-09-06T11:20:55.126Z,7396
2016-09-06T11:21:55.186Z,6916
2016-09-06T11:22:55.195Z,6612
2016-09-06T11:23:55.133Z,6356
2016-09-06T11:24:55.178Z,6020
2016-09-06T11:25:55.165Z,5756
2016-09-06T11:26:55.138Z,5768
2016-09-06T11:27:55.143Z,5844
2016-09-06T11:28:55.108Z,5796
2016-09-06T11:29:55.127Z,5700
2016-09-06T11:30:55.151Z,5644
2016-09-06T11:31:55.107Z,5592
2016-09-06T11:32:55.115Z,5576
2016-09-06T11:33:55.153Z,5368
2016-09-06T11:34:55.157Z,5264
2016-09-06T11:35:55.085Z,5396
2016-09-06T11:36:55.141Z,5648
2016-09-06T11:37:55.176Z,5824
2016-09-06T11:38:55.161Z,6156
2016-09-06T11:39:55.238Z,6864
2016-09-06T11:40:55.491Z,7628
2016-09-06T11:41:55.277Z,7472
2016-09-06T11:42:55.155Z,6716
2016-09-06T11:43:55.197Z,6272
2016-09-06T11:44:55.223Z,6264
2016-09-06T11:45:55.259Z,6460
2016-09-06T11:46:55.143Z,6880
2016-09-06T11:47:55.156Z,7492
2016-09-06T11:48:55.264Z,7832
2016-09-06T11:49:55.266Z,7660
2016-09-06T11:50:56.551Z,7800
2016-09-06T11:51:55.538Z,8036
2016-09-06T11:52:55.351Z,8148
2016-09-06T11:53:55.437Z,7980
2016-09-06T11:54:55.418Z,7280
2016-09-06T11:55:55.327Z,6924
2016-09-06T11:56:55.533Z,6740
2016-09-06T11:57:55.417Z,6448
2016-09-06T11:58:55.138Z,6256
2016-09-06T11:59:55.600Z,6104
2016-09-06T12:00:55.341Z,6084
2016-09-06T12:01:55.370Z,6156
2016-09-06T12:02:55.636Z,6060
2016-09-06T12:03:55.496Z,6076
2016-09-06T12:04:55.488Z,5856
2016-09-06T12:05:55.456Z,5632
2016-09-06T12:06:55.549Z,5740
2016-09-06T12:07:55.379Z,5728
2016-09-06T12:08:55.624Z,5856
2016-09-06T12:09:55.410Z,5952
2016-09-06T12:10:55.504Z,6440
2016-09-06T12:11:55.607Z,6716
2016-09-06T12:12:55.763Z,6860
2016-09-06T12:13:55.581Z,6972
2016-09-06T12:14:55.545Z,7188
2016-09-06T12:15:55.470Z,6892
2016-09-06T12:16:55.526Z,6428
2016-09-06T12:17:55.560Z,6132
2016-09-06T12:18:55.495Z,5704
2016-09-06T12:19:55.398Z,5836
2016-09-06T12:20:55.449Z,5784
2016-09-06T12:21:55.582Z,5768
2016-09-06T12:22:55.411Z,5568
2016-09-06T12:23:55.454Z,5360
2016-09-06T12:24:55.711Z,5036
2016-09-06T12:25:55.461Z,5024
2016-09-06T12:26:55.440Z,5068
2016-09-06T12:27:55.413Z,5232
2016-09-06T12:28:55.555Z,5900
2016-09-06T12:29:55.342Z,6204
2016-09-06T12:30:55.454Z,6780
2016-09-06T12:31:55.457Z,7060
2016-09-06T12:32:55.161Z,7192
2016-09-06T12:33:55.291Z,7372
2016-09-06T12:34:55.532Z,7324
2016-09-06T12:35:55.481Z,7624
2016-09-06T12:36:55.335Z,8112
2016-09-06T12:37:55.631Z,8180
2016-09-06T12:38:55.561Z,7928
2016-09-06T12:39:55.604Z,7452
2016-09-06T12:40:55.432Z,7080
2016-09-06T12:41:55.401Z,6788
2016-09-06T12:42:55.476Z,6916
2016-09-06T12:43:55.485Z,7664
2016-09-06T12:44:55.470Z,8144
2016-09-06T12:45:55.195Z,8136
2016-09-06T12:46:55.234Z,7924
2016-09-06T12:47:55.251Z,7724
2016-09-06T12:48:55.189Z,7648
2016-09-06T12:49:55.262Z,7728
2016-09-06T12:50:55.231Z,7764
2016-09-06T12:51:55.181Z,7856
2016-09-06T12:52:55.142Z,7756
2016-09-06T12:53:55.149Z,7508
2016-09-06T12:54:55.142Z,7036
2016-09-06T12:55:55.220Z,6700
2016-09-06T12:56:55.153Z,6348
2016-09-06T12:57:55.157Z,6028
2016-09-06T12:58:55.277Z,5756
2016-09-06T12:59:55.219Z,5540
2016-09-06T13:00:55.211Z,5396
2016-09-06T13:01:55.290Z,5324
2016-09-06T13:02:55.261Z,5232
2016-09-06T13:03:55.203Z,5144
2016-09-06T13:04:55.210Z,5068
2016-09-06T13:05:55.268Z,5036
2016-09-06T13:06:55.192Z,5020
2016-09-06T13:07:55.172Z,4992
2016-09-06T13:08:55.205Z,4960
2016-09-06T13:09:55.206Z,4952
2016-09-06T13:10:55.190Z,4920
2016-09-06T13:11:55.204Z,4840
2016-09-06T13:12:55.185Z,4728
2016-09-06T13:13:55.198Z,4636
2016-09-06T13:14:55.226Z,4556
2016-09-06T13:15:55.349Z,4500
2016-09-06T13:16:55.515Z,4476
2016-09-06T13:17:55.234Z,4452
2016-09-06T13:18:55.252Z,4420
2016-09-06T13:19:55.287Z,4380
2016-09-06T13:20:55.233Z,4356
2016-09-06T13:21:55.277Z,4372
2016-09-06T13:22:55.165Z,4428
2016-09-06T13:23:55.216Z,4432
2016-09-06T13:24:55.220Z,4416
2016-09-06T13:25:55.329Z,4404
2016-09-06T13:26:55.368Z,4384
2016-09-06T13:27:55.387Z,4388
2016-09-06T13:28:55.405Z,4380
2016-09-06T13:29:55.268Z,4368
2016-09-06T13:30:55.185Z,4352
2016-09-06T13:31:55.298Z,4332
2016-09-06T13:32:55.234Z,4316
2016-09-06T13:33:55.208Z,4312
2016-09-06T13:34:55.232Z,4300
2016-09-06T13:35:55.223Z,4300
2016-09-06T13:36:55.202Z,4288
2016-09-06T13:37:55.196Z,4268
2016-09-06T13:38:55.432Z,4228
2016-09-06T13:39:55.930Z,4220
2016-09-06T13:40:56.459Z,4220
2016-09-06T13:41:55.758Z,4212
2016-09-06T13:42:55.873Z,4196
2016-09-06T13:43:56.107Z,4200
2016-09-06T13:44:55.604Z,4228
2016-09-06T13:45:55.582Z,4232
2016-09-06T13:46:55.523Z,4216
2016-09-06T13:47:55.761Z,4180
2016-09-06T13:48:55.211Z,4204
2016-09-06T13:49:55.698Z,4208
2016-09-06T13:50:55.987Z,4200
2016-09-06T13:51:55.862Z,4200
2016-09-06T13:52:55.925Z,4216